Time;durP1;ratioP1;P1;durP2;ratioP2;P2;SDS_P1;SDS_P2;PMS_P1;PMS_P2;Temp;Humidity;BMP_temperature;BMP_pressure;BME280_temperature;BME280_humidity;BME280_pressure;Samples;Min_cycle;Max_cycle;Signal;HPM_P1;HPM_P2
2023/12/10 00:02:51;;;;;;;11.83;7.27;;;9.70;99.90;;;;;;10397957;28;20726;-76
2023/12/10 00:07:55;;;;;;;18.57;7.90;;;9.60;99.90;;;;;;10384223;28;20215;-76
2023/12/10 00:12:57;;;;;;;18.43;8.73;;;9.60;99.90;;;;;;10397781;28;20714;-76
2023/12/10 00:18:00;;;;;;;14.47;7.00;;;9.70;99.90;;;;;;10384429;28;20195;-76
2023/12/10 00:23:04;;;;;;;11.30;6.70;;;9.60;99.90;;;;;;10395637;28;20218;-76
2023/12/10 00:28:06;;;;;;;13.27;6.00;;;9.60;99.90;;;;;;10384116;28;20648;-76
2023/12/10 00:33:09;;;;;;;13.33;6.30;;;9.70;99.90;;;;;;10395425;28;20284;-75
2023/12/10 00:38:13;;;;;;;15.60;7.03;;;9.70;99.90;;;;;;10384944;28;20190;-75
2023/12/10 00:43:16;;;;;;;16.37;6.80;;;9.70;99.90;;;;;;10394776;28;20214;-75
2023/12/10 00:48:19;;;;;;;16.47;6.30;;;9.70;99.90;;;;;;10395654;28;20226;-76
2023/12/10 00:53:22;;;;;;;17.90;7.30;;;9.70;99.90;;;;;;10393883;28;20214;-76
2023/12/10 00:58:25;;;;;;;29.93;7.33;;;9.70;99.90;;;;;;10383150;28;20221;-75
2023/12/10 01:03:27;;;;;;;15.70;6.63;;;9.60;99.90;;;;;;10392686;28;20229;-75
2023/12/10 01:08:31;;;;;;;12.80;5.97;;;9.60;99.90;;;;;;10385247;28;20214;-76
2023/12/10 01:13:34;;;;;;;16.90;7.37;;;9.70;99.90;;;;;;10390835;28;20229;-76
2023/12/10 01:18:37;;;;;;;24.87;7.40;;;9.60;99.90;;;;;;10385462;28;20225;-75
2023/12/10 01:23:41;;;;;;;24.10;6.97;;;9.60;99.90;;;;;;10390644;28;20225;-75
2023/12/10 01:28:43;;;;;;;19.27;7.23;;;9.60;99.90;;;;;;10385880;28;20218;-76
2023/12/10 01:33:45;;;;;;;21.83;8.60;;;9.60;99.90;;;;;;10415505;22;20225;-78
2023/12/10 01:38:49;;;;;;;20.07;6.80;;;9.60;99.90;;;;;;10414296;28;20267;-77
2023/12/10 01:43:52;;;;;;;16.13;6.50;;;9.60;99.90;;;;;;10415170;28;20221;-78
2023/12/10 01:48:55;;;;;;;15.33;6.47;;;9.70;99.90;;;;;;10392383;28;20641;-77
2023/12/10 01:53:59;;;;;;;14.57;7.67;;;9.70;99.90;;;;;;10394425;28;20595;-79
2023/12/10 01:59:02;;;;;;;21.50;6.70;;;9.70;99.90;;;;;;10371277;28;20276;-77
2023/12/10 02:04:06;;;;;;;16.50;6.40;;;9.70;99.90;;;;;;10389623;28;21029;-78
2023/12/10 02:09:13;;;;;;;18.27;5.77;;;9.70;99.90;;;;;;10394300;28;20234;-79
2023/12/10 02:14:15;;;;;;;15.23;6.70;;;9.70;99.90;;;;;;10393645;28;20611;-78
2023/12/10 02:19:18;;;;;;;15.97;6.50;;;9.70;99.90;;;;;;10392858;28;20245;-78
2023/12/10 02:24:29;;;;;;;20.17;6.03;;;9.70;99.90;;;;;;10391093;28;20222;-77
2023/12/10 02:29:33;;;;;;;14.53;6.53;;;9.70;99.90;;;;;;10391340;28;20226;-78
2023/12/10 02:34:36;;;;;;;21.30;6.40;;;9.70;99.90;;;;;;10393125;28;20606;-77
2023/12/10 02:39:38;;;;;;;21.43;7.63;;;9.70;99.90;;;;;;10393333;28;20194;-78
2023/12/10 02:44:42;;;;;;;13.10;5.10;;;9.70;99.90;;;;;;10391297;28;20686;-78
2023/12/10 02:49:45;;;;;;;7.90;3.90;;;9.60;99.90;;;;;;10410492;28;20217;-79
2023/12/10 02:54:47;;;;;;;10.67;4.43;;;9.50;99.90;;;;;;10393661;28;20218;-78
2023/12/10 02:59:51;;;;;;;11.37;5.60;;;9.30;99.90;;;;;;10392755;28;20202;-79
2023/12/10 03:04:53;;;;;;;11.67;5.50;;;9.30;99.90;;;;;;10393969;28;20265;-77
2023/12/10 03:09:56;;;;;;;12.63;6.17;;;9.10;99.90;;;;;;10390503;28;20490;-78
2023/12/10 03:14:59;;;;;;;12.00;5.30;;;9.00;99.90;;;;;;10393400;28;20222;-78
2023/12/10 03:20:03;;;;;;;8.83;5.13;;;8.90;99.90;;;;;;10389268;28;20214;-78
2023/12/10 03:25:06;;;;;;;6.10;4.53;;;8.80;99.90;;;;;;10396942;28;20273;-78
2023/12/10 03:30:10;;;;;;;13.87;4.43;;;8.70;99.90;;;;;;10392787;28;20228;-79
2023/12/10 03:35:13;;;;;;;8.43;4.40;;;8.60;99.90;;;;;;10396388;28;20226;-78
2023/12/10 03:40:15;;;;;;;10.50;4.97;;;8.60;99.90;;;;;;10391917;28;20668;-78
2023/12/10 03:45:19;;;;;;;10.37;5.27;;;8.50;99.90;;;;;;10398262;28;20223;-79
2023/12/10 03:50:21;;;;;;;9.23;4.80;;;8.50;99.90;;;;;;10398151;28;20233;-79
2023/12/10 03:55:24;;;;;;;9.10;5.73;;;8.60;99.90;;;;;;10401439;28;20368;-79
2023/12/10 04:00:28;;;;;;;8.53;4.67;;;8.60;99.90;;;;;;10394625;28;20205;-78
2023/12/10 04:05:31;;;;;;;12.87;5.03;;;8.70;99.90;;;;;;10401129;28;20235;-78
2023/12/10 04:10:33;;;;;;;9.00;4.93;;;8.80;99.90;;;;;;10394368;28;20228;-78
2023/12/10 04:15:37;;;;;;;13.97;6.47;;;8.80;99.90;;;;;;10403432;28;20233;-78
2023/12/10 04:20:39;;;;;;;9.00;4.50;;;8.90;99.90;;;;;;10388800;28;20300;-78
2023/12/10 04:25:42;;;;;;;14.27;5.43;;;8.90;99.90;;;;;;10396386;28;20308;-78
2023/12/10 04:30:46;;;;;;;12.03;4.97;;;9.00;99.90;;;;;;10387183;28;20214;-78
2023/12/10 04:35:48;;;;;;;9.17;4.40;;;9.00;99.90;;;;;;10396595;28;20754;-77
2023/12/10 04:40:51;;;;;;;10.93;4.60;;;9.00;99.90;;;;;;10386040;28;20252;-77
2023/12/10 04:45:54;;;;;;;12.50;4.30;;;9.10;99.90;;;;;;10397152;28;20225;-77
2023/12/10 04:50:58;;;;;;;12.90;4.70;;;9.10;99.90;;;;;;10384344;28;20229;-77
2023/12/10 04:56:00;;;;;;;14.07;4.97;;;9.20;99.90;;;;;;10379370;28;20292;-77
2023/12/10 05:01:04;;;;;;;14.30;4.17;;;9.20;99.90;;;;;;10384163;28;20336;-78
2023/12/10 05:06:07;;;;;;;11.50;4.17;;;9.20;99.90;;;;;;10398144;28;20265;-78
2023/12/10 05:11:10;;;;;;;13.13;4.53;;;9.30;99.90;;;;;;10384360;28;20634;-78
2023/12/10 05:16:14;;;;;;;13.00;4.00;;;9.30;99.90;;;;;;10401488;28;20218;-78
2023/12/10 05:21:16;;;;;;;11.40;4.30;;;9.30;99.90;;;;;;10386282;28;20232;-79
2023/12/10 05:26:19;;;;;;;9.43;4.80;;;9.30;99.90;;;;;;10401621;28;20218;-78
2023/12/10 05:31:23;;;;;;;11.13;3.83;;;9.40;99.90;;;;;;10385028;28;20222;-77
2023/12/10 05:36:25;;;;;;;14.63;4.50;;;9.40;99.90;;;;;;10402479;28;20233;-78
2023/12/10 05:41:28;;;;;;;10.10;3.83;;;9.30;99.90;;;;;;10385434;28;20205;-78
2023/12/10 05:46:32;;;;;;;8.57;5.00;;;9.30;99.90;;;;;;10402680;28;20272;-78
2023/12/10 05:51:34;;;;;;;16.20;3.90;;;9.30;99.90;;;;;;10386145;28;20761;-77
2023/12/10 05:56:38;;;;;;;5.93;3.50;;;9.30;99.90;;;;;;10402058;28;20699;-77
2023/12/10 06:01:42;;;;;;;13.43;4.50;;;9.30;99.90;;;;;;10383406;28;20664;-77
2023/12/10 06:06:44;;;;;;;11.17;3.47;;;9.30;99.90;;;;;;10387565;28;20210;-78
2023/12/10 06:11:47;;;;;;;8.37;4.43;;;9.30;99.90;;;;;;10381162;28;20209;-79
2023/12/10 06:16:50;;;;;;;12.37;4.20;;;9.30;99.90;;;;;;10403020;28;20229;-78
2023/12/10 06:21:53;;;;;;;9.57;3.10;;;9.30;99.90;;;;;;10379751;28;20204;-78
2023/12/10 06:26:55;;;;;;;9.77;4.23;;;9.30;99.90;;;;;;10403707;28;20218;-78
2023/12/10 06:31:59;;;;;;;10.77;3.63;;;9.30;99.90;;;;;;10370164;28;20726;-77
2023/12/10 06:37:01;;;;;;;11.80;3.80;;;9.30;99.90;;;;;;10379246;28;20325;-78
2023/12/10 06:42:04;;;;;;;7.87;2.63;;;9.30;99.90;;;;;;10386811;28;20198;-79
2023/12/10 06:47:08;;;;;;;11.80;4.10;;;9.30;99.90;;;;;;10370559;28;20588;-77
2023/12/10 06:52:11;;;;;;;6.60;3.30;;;9.30;99.90;;;;;;10378140;28;20222;-78
2023/12/10 06:57:13;;;;;;;8.17;3.40;;;9.30;99.90;;;;;;10404989;28;20762;-78
2023/12/10 07:02:17;;;;;;;13.33;3.97;;;9.30;99.90;;;;;;10377408;28;20191;-78
2023/12/10 07:07:20;;;;;;;12.57;4.27;;;9.30;99.90;;;;;;10384766;28;20221;-77
2023/12/10 07:12:22;;;;;;;7.57;3.30;;;9.30;99.90;;;;;;10414808;28;20222;-78
2023/12/10 07:17:26;;;;;;;9.77;3.73;;;9.30;99.90;;;;;;10363581;28;20225;-79
2023/12/10 07:22:28;;;;;;;7.37;3.30;;;9.30;99.90;;;;;;10381594;28;20183;-78
2023/12/10 07:27:31;;;;;;;10.47;3.47;;;9.30;99.90;;;;;;10410985;28;20222;-78
2023/12/10 07:32:35;;;;;;;9.40;3.90;;;9.40;99.90;;;;;;10380106;28;20217;-78
2023/12/10 07:37:37;;;;;;;4.70;2.50;;;9.30;99.90;;;;;;10411280;28;20658;-77
2023/12/10 07:42:40;;;;;;;12.30;3.93;;;9.10;99.90;;;;;;10379399;28;20682;-78
2023/12/10 07:47:43;;;;;;;12.93;4.47;;;9.00;99.90;;;;;;10398622;28;20213;-78
2023/12/10 07:52:46;;;;;;;11.80;5.23;;;8.90;99.90;;;;;;10411837;28;20684;-78
2023/12/10 07:57:48;;;;;;;10.80;3.77;;;8.80;99.90;;;;;;10376879;28;20218;-78
2023/12/10 08:02:52;;;;;;;12.53;4.73;;;8.70;99.90;;;;;;10372708;28;20195;-77
2023/12/10 08:07:56;;;;;;;8.50;3.70;;;8.80;99.90;;;;;;10373568;28;20715;-76
2023/12/10 08:12:59;;;;;;;8.30;3.60;;;8.90;99.90;;;;;;10384964;28;20226;-77
2023/12/10 08:18:03;;;;;;;13.97;3.90;;;8.90;99.90;;;;;;10404751;28;20213;-78
2023/12/10 08:23:05;;;;;;;9.20;3.63;;;9.10;99.90;;;;;;10408277;28;20194;-78
2023/12/10 08:28:08;;;;;;;9.80;3.30;;;9.10;99.90;;;;;;10375899;28;20656;-78
2023/12/10 08:33:12;;;;;;;10.87;4.27;;;9.10;99.90;;;;;;10412052;28;20226;-78
2023/12/10 08:38:14;;;;;;;10.53;4.57;;;9.10;99.90;;;;;;10374635;28;20191;-78
2023/12/10 08:43:17;;;;;;;6.00;3.43;;;9.20;99.90;;;;;;10412436;28;20201;-79
2023/12/10 08:48:21;;;;;;;7.30;3.30;;;9.30;99.90;;;;;;10374693;28;20672;-78
2023/12/10 08:53:23;;;;;;;12.27;4.03;;;9.40;99.90;;;;;;10398132;28;20226;-78
2023/12/10 08:58:27;;;;;;;8.50;3.47;;;9.50;99.90;;;;;;10372795;28;20608;-79
2023/12/10 09:03:31;;;;;;;10.33;3.13;;;9.60;99.90;;;;;;10414194;28;20217;-78
2023/12/10 09:08:33;;;;;;;8.47;3.83;;;9.50;99.90;;;;;;10367382;28;20199;-78
2023/12/10 09:13:36;;;;;;;8.17;2.93;;;9.50;99.90;;;;;;10356240;28;20222;-78
2023/12/10 09:18:39;;;;;;;12.03;3.73;;;9.50;99.90;;;;;;10346319;28;20210;-79
2023/12/10 09:23:43;;;;;;;9.30;3.20;;;9.50;99.90;;;;;;10330935;28;20661;-77
2023/12/10 09:28:45;;;;;;;8.20;3.83;;;9.60;99.90;;;;;;10347243;28;20195;-79
2023/12/10 09:33:49;;;;;;;8.60;3.70;;;9.80;99.90;;;;;;10390197;28;20266;-79
2023/12/10 09:38:52;;;;;;;7.30;3.60;;;10.00;99.90;;;;;;10334502;28;20223;-79
2023/12/10 09:43:54;;;;;;;8.77;2.93;;;10.20;99.90;;;;;;10351257;28;20269;-79
2023/12/10 09:49:00;;;;;;;8.97;3.40;;;10.20;99.90;;;;;;10356656;28;20253;-79
2023/12/10 09:54:03;;;;;;;5.67;3.00;;;10.20;99.90;;;;;;10361663;28;20227;-80
2023/12/10 09:59:05;;;;;;;4.60;2.77;;;10.20;99.90;;;;;;10361257;28;20199;-79
2023/12/10 10:04:09;;;;;;;11.40;3.80;;;10.30;99.90;;;;;;10357016;28;20226;-79
2023/12/10 10:09:12;;;;;;;7.90;3.47;;;10.40;99.90;;;;;;10352163;28;20253;-77
2023/12/10 10:14:14;;;;;;;8.57;3.40;;;10.40;99.90;;;;;;10337854;28;20238;-79
2023/12/10 10:19:18;;;;;;;6.07;3.20;;;10.40;99.90;;;;;;10366363;28;20669;-78
2023/12/10 10:24:20;;;;;;;7.50;3.00;;;10.50;99.90;;;;;;10353860;28;20216;-80
2023/12/10 10:29:25;;;;;;;5.70;2.90;;;10.60;99.90;;;;;;10374885;28;20278;-80
2023/12/10 10:34:29;;;;;;;5.70;2.60;;;10.60;99.90;;;;;;10395116;28;20210;-80
2023/12/10 10:39:32;;;;;;;6.43;2.70;;;10.60;99.90;;;;;;10421734;28;20205;-79
2023/12/10 10:44:34;;;;;;;8.10;2.30;;;10.60;99.90;;;;;;10354715;28;20211;-79
2023/12/10 10:49:42;;;;;;;6.77;2.97;;;10.60;99.90;;;;;;10344146;28;20214;-79
2023/12/10 10:54:45;;;;;;;7.23;2.80;;;10.60;99.90;;;;;;10357930;28;20242;-79
2023/12/10 10:59:48;;;;;;;10.73;3.30;;;10.60;99.90;;;;;;10381707;28;20210;-80
2023/12/10 11:04:52;;;;;;;7.67;3.03;;;10.60;99.90;;;;;;10374367;28;20545;-79
2023/12/10 11:09:56;;;;;;;4.30;3.13;;;10.70;99.90;;;;;;10344224;28;20241;-78
2023/12/10 11:14:58;;;;;;;6.13;3.07;;;10.70;99.90;;;;;;10343936;28;20297;-79
2023/12/10 11:20:03;;;;;;;4.90;2.93;;;10.70;99.90;;;;;;10386699;28;20195;-79
2023/12/10 11:25:06;;;;;;;8.03;3.13;;;10.80;99.90;;;;;;10338742;28;20226;-79
2023/12/10 11:30:09;;;;;;;13.13;3.40;;;10.80;99.90;;;;;;10385956;28;20195;-79
2023/12/10 11:35:14;;;;;;;9.77;2.80;;;10.80;99.90;;;;;;10391284;28;20226;-79
2023/12/10 11:40:16;;;;;;;9.33;3.70;;;10.80;99.90;;;;;;10368882;28;20253;-79
2023/12/10 11:45:19;;;;;;;6.07;2.97;;;10.80;99.90;;;;;;10370306;28;20720;-79
2023/12/10 11:50:23;;;;;;;8.03;3.17;;;10.80;99.90;;;;;;10379471;28;20199;-79
2023/12/10 11:55:25;;;;;;;10.17;3.43;;;10.80;99.90;;;;;;10377427;28;20226;-80
2023/12/10 12:00:28;;;;;;;12.70;3.70;;;10.70;99.90;;;;;;10392135;28;20194;-79
2023/12/10 12:05:32;;;;;;;7.10;3.93;;;10.70;99.90;;;;;;10390617;28;20650;-79
2023/12/10 12:10:38;;;;;;;7.97;3.20;;;10.80;99.90;;;;;;10382363;28;20734;-79
2023/12/10 12:15:45;;;;;;;7.10;3.17;;;10.70;99.90;;;;;;10414934;28;20229;-80
2023/12/10 12:20:49;;;;;;;10.00;4.07;;;10.70;99.90;;;;;;10425902;28;20210;-79
2023/12/10 12:25:51;;;;;;;13.33;4.80;;;10.60;99.90;;;;;;10410952;28;20650;-79
2023/12/10 12:30:54;;;;;;;16.83;3.90;;;10.70;99.90;;;;;;10403764;28;20198;-79
2023/12/10 12:36:00;;;;;;;9.17;3.53;;;10.70;99.90;;;;;;10410686;28;20234;-79
2023/12/10 12:41:03;;;;;;;13.10;4.60;;;10.80;99.90;;;;;;10365504;28;20277;-78
2023/12/10 12:46:05;;;;;;;10.80;3.00;;;10.90;99.90;;;;;;10409100;28;20217;-78
2023/12/10 12:51:09;;;;;;;7.33;3.67;;;11.00;99.90;;;;;;10384686;28;20207;-79
2023/12/10 12:56:12;;;;;;;5.90;2.90;;;11.00;99.90;;;;;;10368518;28;20230;-78
2023/12/10 13:01:14;;;;;;;8.43;3.00;;;11.10;99.90;;;;;;10405039;28;20251;-77
2023/12/10 13:06:18;;;;;;;6.03;3.10;;;11.10;99.90;;;;;;10414188;28;20214;-78
2023/12/10 13:11:20;;;;;;;5.93;3.50;;;11.00;99.90;;;;;;10366287;28;20206;-79
2023/12/10 13:16:23;;;;;;;9.20;3.80;;;11.10;99.90;;;;;;10346959;28;20233;-79
2023/12/10 13:21:27;;;;;;;5.70;2.90;;;11.10;99.90;;;;;;10405657;28;20201;-79
2023/12/10 13:26:29;;;;;;;10.47;3.00;;;11.10;99.90;;;;;;10377720;28;20715;-79
2023/12/10 13:31:31;;;;;;;6.60;2.87;;;11.00;99.90;;;;;;10407531;28;20300;-79
2023/12/10 13:36:36;;;;;;;5.67;2.50;;;11.00;99.90;;;;;;10386838;28;20235;-79
2023/12/10 13:41:38;;;;;;;3.70;2.57;;;10.90;99.90;;;;;;10375158;28;20262;-79
2023/12/10 13:46:41;;;;;;;10.37;3.00;;;10.80;99.90;;;;;;10396396;28;20639;-79
2023/12/10 13:51:45;;;;;;;8.50;2.80;;;10.80;99.90;;;;;;10402264;28;20730;-79
2023/12/10 13:56:47;;;;;;;6.30;2.73;;;10.80;99.90;;;;;;10384118;28;20517;-78
2023/12/10 14:01:50;;;;;;;7.37;3.33;;;10.70;99.90;;;;;;10387561;28;20205;-77
2023/12/10 14:06:53;;;;;;;8.50;3.00;;;10.70;99.90;;;;;;10387611;28;20238;-79
2023/12/10 14:11:56;;;;;;;9.80;3.10;;;10.70;99.90;;;;;;10400602;28;20688;-77
2023/12/10 14:16:58;;;;;;;6.43;2.80;;;10.70;99.90;;;;;;10385583;28;20214;-79
2023/12/10 14:22:02;;;;;;;4.83;2.50;;;10.70;99.90;;;;;;10383507;28;20676;-79
2023/12/10 14:27:05;;;;;;;7.03;2.93;;;10.70;99.90;;;;;;10396254;28;20237;-77
2023/12/10 14:32:07;;;;;;;5.30;3.37;;;10.70;99.90;;;;;;10386316;28;20237;-79
2023/12/10 14:37:11;;;;;;;9.30;3.33;;;10.70;99.90;;;;;;10401713;28;20225;-79
2023/12/10 14:42:14;;;;;;;5.90;3.93;;;10.70;99.90;;;;;;10389391;28;20621;-79
2023/12/10 14:47:17;;;;;;;8.23;3.40;;;10.70;99.90;;;;;;10401384;28;20225;-79
2023/12/10 14:52:22;;;;;;;6.77;3.67;;;10.70;99.90;;;;;;10372064;28;20226;-78
2023/12/10 14:57:25;;;;;;;8.47;3.07;;;10.70;99.90;;;;;;10394358;28;20703;-78
2023/12/10 15:02:28;;;;;;;12.00;5.80;;;10.70;99.90;;;;;;10386282;28;20187;-79
2023/12/10 15:07:32;;;;;;;10.87;5.43;;;10.70;99.90;;;;;;10383452;28;20275;-78
2023/12/10 15:12:34;;;;;;;9.60;3.67;;;10.60;99.90;;;;;;10371597;28;20230;-79
2023/12/10 15:17:37;;;;;;;6.97;3.67;;;10.50;99.90;;;;;;10376471;28;20223;-78
2023/12/10 15:22:41;;;;;;;6.20;2.93;;;10.50;99.90;;;;;;10406816;28;20190;-78
2023/12/10 15:27:43;;;;;;;11.03;4.53;;;10.50;99.90;;;;;;10412268;28;20218;-79
2023/12/10 15:32:46;;;;;;;7.50;3.70;;;10.40;99.90;;;;;;10398575;28;20289;-79
2023/12/10 15:37:50;;;;;;;13.70;4.47;;;10.50;99.90;;;;;;10381066;28;20226;-78
2023/12/10 15:42:52;;;;;;;6.87;2.50;;;10.40;99.90;;;;;;10379566;28;20199;-79
2023/12/10 15:47:55;;;;;;;6.00;3.33;;;10.40;99.90;;;;;;10381112;28;20230;-78
2023/12/10 15:52:59;;;;;;;18.43;5.03;;;10.40;99.90;;;;;;10405109;28;20210;-78
2023/12/10 15:58:01;;;;;;;9.47;3.90;;;10.40;99.90;;;;;;10391061;28;20206;-79
2023/12/10 16:03:04;;;;;;;11.50;4.30;;;10.40;99.90;;;;;;10399684;28;20195;-79
2023/12/10 16:08:08;;;;;;;11.17;4.00;;;10.40;99.90;;;;;;10404919;28;20198;-78
2023/12/10 16:13:10;;;;;;;7.97;3.80;;;10.40;99.90;;;;;;10397512;28;20211;-79
2023/12/10 16:18:13;;;;;;;18.13;5.23;;;10.40;99.90;;;;;;10379276;28;20198;-78
2023/12/10 16:23:17;;;;;;;11.57;3.60;;;10.40;99.90;;;;;;10383833;28;20224;-79
2023/12/10 16:28:19;;;;;;;7.73;3.20;;;10.40;99.90;;;;;;10383379;28;20213;-79
2023/12/10 16:33:24;;;;;;;9.57;4.07;;;10.40;99.90;;;;;;10381035;28;20230;-78
2023/12/10 16:38:28;;;;;;;16.53;3.80;;;10.40;99.90;;;;;;10380529;28;20195;-79
2023/12/10 16:43:31;;;;;;;7.57;3.33;;;10.30;99.90;;;;;;10397529;28;20226;-79
2023/12/10 16:48:33;;;;;;;6.10;3.63;;;10.30;99.90;;;;;;10397387;28;20253;-77
2023/12/10 16:53:37;;;;;;;6.53;3.80;;;10.30;99.90;;;;;;10374177;28;20292;-79
2023/12/10 16:58:40;;;;;;;12.47;3.70;;;10.20;99.90;;;;;;10335962;28;20234;-78
2023/12/10 17:03:42;;;;;;;7.90;3.47;;;10.20;99.90;;;;;;10372644;28;20568;-79
2023/12/10 17:08:46;;;;;;;13.50;3.20;;;10.20;99.90;;;;;;10397380;28;20232;-79
2023/12/10 17:13:48;;;;;;;8.13;3.20;;;10.20;99.90;;;;;;10377606;28;20272;-78
2023/12/10 17:18:51;;;;;;;9.43;3.93;;;10.20;99.90;;;;;;10376941;28;20240;-79
2023/12/10 17:23:55;;;;;;;8.30;2.30;;;10.20;99.90;;;;;;10397991;28;20218;-79
2023/12/10 17:28:58;;;;;;;6.30;3.20;;;10.20;99.90;;;;;;10374690;28;20190;-78
2023/12/10 17:34:01;;;;;;;11.30;3.33;;;10.30;99.90;;;;;;10396666;28;20317;-79
2023/12/10 17:39:05;;;;;;;7.87;2.90;;;10.30;99.90;;;;;;10390447;28;20255;-79
2023/12/10 17:44:09;;;;;;;10.93;3.63;;;10.30;99.90;;;;;;10393304;28;20269;-79
2023/12/10 17:49:11;;;;;;;11.03;4.17;;;10.30;99.90;;;;;;10390646;28;20633;-79
2023/12/10 17:54:16;;;;;;;6.40;2.80;;;10.40;99.90;;;;;;10397436;28;20289;-78
2023/12/10 17:59:18;;;;;;;8.07;3.80;;;10.40;99.90;;;;;;10371400;28;20206;-79
2023/12/10 18:04:21;;;;;;;11.47;4.33;;;10.50;99.90;;;;;;10391908;28;20230;-76
2023/12/10 18:09:25;;;;;;;9.90;3.57;;;10.50;99.90;;;;;;10373443;28;20197;-79
2023/12/10 18:14:27;;;;;;;6.10;2.90;;;10.60;99.90;;;;;;10358588;28;20277;-78
2023/12/10 18:19:29;;;;;;;4.37;2.60;;;10.60;99.90;;;;;;10363528;28;20285;-79
2023/12/10 18:24:33;;;;;;;5.30;3.00;;;10.60;99.90;;;;;;10336589;28;20226;-79
2023/12/10 18:29:36;;;;;;;5.77;3.00;;;10.60;99.90;;;;;;10351448;28;20571;-78
2023/12/10 18:34:39;;;;;;;5.40;2.93;;;10.70;99.90;;;;;;10346553;28;20647;-79
2023/12/10 18:39:44;;;;;;;8.40;2.83;;;10.70;99.90;;;;;;10375202;28;20212;-79
2023/12/10 18:44:46;;;;;;;4.57;2.30;;;10.70;99.90;;;;;;10376481;28;20221;-78
2023/12/10 18:49:48;;;;;;;5.63;2.63;;;10.70;99.90;;;;;;10371103;28;20476;-79
2023/12/10 18:54:52;;;;;;;6.43;2.77;;;10.80;99.50;;;;;;10389585;28;20237;-78
2023/12/10 18:59:55;;;;;;;4.90;2.70;;;10.80;98.60;;;;;;10374969;28;20194;-79
2023/12/10 19:04:57;;;;;;;5.07;2.47;;;10.80;99.60;;;;;;10382580;28;20745;-79
2023/12/10 19:10:01;;;;;;;6.07;2.70;;;10.80;99.90;;;;;;10376125;28;20211;-78
2023/12/10 19:15:05;;;;;;;6.70;2.63;;;10.80;99.60;;;;;;10382287;28;20464;-79
2023/12/10 19:20:20;;;;;;;4.03;2.90;;;10.80;99.80;;;;;;10369112;28;20236;-79
2023/12/10 19:25:24;;;;;;;4.27;2.40;;;10.80;99.70;;;;;;10381285;28;20217;-78
2023/12/10 19:30:27;;;;;;;3.30;2.20;;;10.80;99.40;;;;;;10393158;28;20210;-79
2023/12/10 19:35:30;;;;;;;4.50;2.30;;;10.80;98.20;;;;;;10360205;28;20846;-79
2023/12/10 19:40:34;;;;;;;5.43;1.93;;;10.80;97.50;;;;;;10368998;28;20212;-79
2023/12/10 19:45:36;;;;;;;5.03;1.80;;;10.80;97.80;;;;;;10375846;28;20222;-78
2023/12/10 19:50:39;;;;;;;10.13;2.30;;;10.80;97.20;;;;;;10366331;28;20699;-78
2023/12/10 19:55:43;;;;;;;5.30;2.73;;;10.80;96.30;;;;;;10374491;28;20222;-77
2023/12/10 20:00:46;;;;;;;2.63;1.83;;;10.80;96.50;;;;;;10382262;28;20206;-79
2023/12/10 20:05:49;;;;;;;2.70;1.87;;;10.90;95.80;;;;;;10371489;28;20218;-78
2023/12/10 20:10:53;;;;;;;3.77;2.17;;;11.00;94.80;;;;;;10383442;28;20202;-79
2023/12/10 20:15:55;;;;;;;2.17;1.90;;;11.00;94.40;;;;;;10342763;28;20253;-79
2023/12/10 20:20:58;;;;;;;5.23;2.53;;;11.00;94.80;;;;;;10380086;28;20194;-78
2023/12/10 20:26:02;;;;;;;2.90;2.17;;;11.00;95.00;;;;;;10380217;28;20214;-79
2023/12/10 20:31:05;;;;;;;2.50;1.83;;;11.00;94.60;;;;;;10377593;28;20206;-79
2023/12/10 20:36:09;;;;;;;2.37;1.90;;;11.00;95.70;;;;;;10378004;28;20745;-77
2023/12/10 20:41:14;;;;;;;3.80;1.93;;;11.00;94.70;;;;;;10357984;28;20225;-80
2023/12/10 20:46:17;;;;;;;1.60;1.50;;;11.00;94.50;;;;;;10379847;28;20222;-78
2023/12/10 20:51:21;;;;;;;3.30;2.13;;;11.00;93.90;;;;;;10355019;28;20253;-81
2023/12/10 20:56:25;;;;;;;5.50;2.10;;;11.10;94.30;;;;;;10378586;28;20224;-80
2023/12/10 21:01:28;;;;;;;2.17;1.63;;;11.00;94.50;;;;;;10381724;28;20599;-79
2023/12/10 21:06:33;;;;;;;2.93;2.13;;;11.00;95.20;;;;;;10369026;28;20293;-80
2023/12/10 21:11:37;;;;;;;1.57;1.47;;;11.10;94.20;;;;;;10373927;28;20812;-80
2023/12/10 21:16:40;;;;;;;2.20;1.60;;;11.00;94.50;;;;;;10364674;28;20731;-80
2023/12/10 21:21:42;;;;;;;3.27;1.60;;;11.00;94.30;;;;;;10346126;28;20952;-81
2023/12/10 21:26:46;;;;;;;1.80;1.70;;;11.00;95.30;;;;;;10367045;28;20215;-80
2023/12/10 21:31:49;;;;;;;3.13;1.60;;;11.00;95.40;;;;;;10383689;28;20291;-81
2023/12/10 21:36:51;;;;;;;2.10;1.57;;;11.00;95.30;;;;;;10380173;28;20233;-80
2023/12/10 21:41:55;;;;;;;2.17;1.47;;;11.00;95.50;;;;;;10394801;28;20225;-79
2023/12/10 21:46:58;;;;;;;3.80;1.77;;;11.00;95.90;;;;;;10392756;28;20633;-79
2023/12/10 21:52:00;;;;;;;1.77;1.40;;;11.10;95.70;;;;;;10382764;28;20202;-80
2023/12/10 21:57:04;;;;;;;1.40;1.30;;;11.20;95.40;;;;;;10382157;28;20222;-80
2023/12/10 22:02:07;;;;;;;1.53;1.30;;;11.20;96.40;;;;;;10389969;28;20202;-80
2023/12/10 22:07:10;;;;;;;1.40;1.30;;;11.20;96.90;;;;;;10382758;28;20268;-80
2023/12/10 22:12:14;;;;;;;1.57;1.40;;;11.20;97.90;;;;;;10379673;28;20198;-79
2023/12/10 22:17:17;;;;;;;2.27;1.70;;;11.20;99.40;;;;;;10382078;28;20667;-81
2023/12/10 22:22:19;;;;;;;1.40;1.30;;;11.00;99.90;;;;;;10387334;28;20202;-81
2023/12/10 22:27:23;;;;;;;1.60;1.60;;;10.80;99.90;;;;;;10389306;28;20752;-81
2023/12/10 22:32:26;;;;;;;2.10;2.00;;;10.70;99.90;;;;;;10397328;28;20210;-79
2023/12/10 22:37:28;;;;;;;1.80;1.60;;;10.70;99.90;;;;;;10388317;28;20635;-81
2023/12/10 22:42:32;;;;;;;1.90;1.80;;;10.70;99.90;;;;;;10373272;28;20254;-80
2023/12/10 22:47:34;;;;;;;1.80;1.60;;;10.70;99.90;;;;;;10389457;28;20229;-80
2023/12/10 22:52:37;;;;;;;1.87;1.77;;;10.80;99.90;;;;;;10390988;28;20202;-81
2023/12/10 22:57:41;;;;;;;1.80;1.70;;;10.80;99.90;;;;;;10391162;28;20253;-80
2023/12/10 23:02:44;;;;;;;2.63;2.43;;;10.80;99.90;;;;;;10388525;28;20296;-78
2023/12/10 23:07:46;;;;;;;2.87;2.77;;;10.70;99.90;;;;;;10367896;28;20225;-79
2023/12/10 23:12:50;;;;;;;3.10;2.90;;;10.50;99.90;;;;;;10388390;28;20227;-79
2023/12/10 23:17:52;;;;;;;3.23;3.03;;;10.30;99.90;;;;;;10400163;28;20221;-81
2023/12/10 23:22:55;;;;;;;3.20;3.00;;;10.20;99.90;;;;;;10391411;28;20671;-81
2023/12/10 23:27:59;;;;;;;3.70;3.50;;;10.10;99.90;;;;;;10395751;28;20309;-81
2023/12/10 23:33:02;;;;;;;3.60;3.30;;;10.00;99.90;;;;;;10390200;28;20217;-81
2023/12/10 23:38:04;;;;;;;4.00;3.70;;;10.00;99.90;;;;;;10385457;28;20222;-81
2023/12/10 23:43:08;;;;;;;3.70;3.50;;;9.90;99.90;;;;;;10367093;28;20589;-81
2023/12/10 23:48:11;;;;;;;3.60;3.50;;;9.90;99.90;;;;;;10386934;28;20738;-82
2023/12/10 23:53:13;;;;;;;4.40;4.10;;;9.90;99.90;;;;;;10381971;28;20206;-81
2023/12/10 23:58:17;;;;;;;3.60;3.40;;;9.90;99.90;;;;;;10380967;28;20245;-79
